Time;durP1;ratioP1;P1;durP2;ratioP2;P2;SDS_P1;SDS_P2;PMS_P1;PMS_P2;Temp;Humidity;BMP_temperature;BMP_pressure;BME280_temperature;BME280_humidity;BME280_pressure;Samples;Min_cycle;Max_cycle;Signal;HPM_P1;HPM_P2
2021/07/11 00:01:31;;;;;;;10.20;9.50;;;20.00;99.90;;;;;;4994713;28;20454;-65
2021/07/11 00:03:57;;;;;;;9.67;9.07;;;20.00;99.90;;;;;;4977376;28;20543;-65
2021/07/11 00:06:23;;;;;;;8.83;8.33;;;20.00;99.90;;;;;;4993722;28;20183;-65
2021/07/11 00:08:49;;;;;;;8.77;8.27;;;20.00;99.90;;;;;;4994370;28;20198;-65
2021/07/11 00:11:14;;;;;;;8.23;7.73;;;20.00;99.90;;;;;;4993984;28;20242;-65
2021/07/11 00:13:40;;;;;;;8.40;7.80;;;20.00;99.90;;;;;;4994475;28;20526;-65
2021/07/11 00:16:06;;;;;;;8.40;7.80;;;20.00;99.90;;;;;;4993854;28;20659;-65
2021/07/11 00:18:31;;;;;;;8.20;7.50;;;20.00;99.90;;;;;;4994279;28;20283;-65
2021/07/11 00:20:57;;;;;;;8.00;7.40;;;20.00;99.90;;;;;;4994002;28;20230;-65
2021/07/11 00:23:23;;;;;;;8.53;7.93;;;20.00;99.90;;;;;;4993454;28;20537;-64
2021/07/11 00:25:48;;;;;;;8.80;8.20;;;20.00;99.90;;;;;;4994103;28;20226;-65
2021/07/11 00:28:14;;;;;;;8.30;7.80;;;20.00;99.90;;;;;;4993551;28;20266;-65
2021/07/11 00:30:40;;;;;;;8.67;8.10;;;19.90;99.90;;;;;;4994064;28;20262;-65
2021/07/11 00:33:06;;;;;;;9.00;8.40;;;20.00;99.90;;;;;;4993518;28;20517;-65
2021/07/11 00:35:31;;;;;;;8.77;8.17;;;20.00;99.90;;;;;;4994071;28;20184;-65
2021/07/11 00:37:57;;;;;;;8.90;8.30;;;19.90;99.90;;;;;;4994007;28;20183;-65
2021/07/11 00:40:22;;;;;;;9.03;8.43;;;20.00;99.90;;;;;;4993267;28;20453;-65
2021/07/11 00:42:48;;;;;;;9.30;8.70;;;19.90;99.90;;;;;;4993610;28;20191;-65
2021/07/11 00:45:15;;;;;;;10.70;9.90;;;19.90;99.90;;;;;;4993321;28;20176;-64
2021/07/11 00:47:42;;;;;;;9.50;8.80;;;20.00;99.90;;;;;;4993864;28;20538;-65
2021/07/11 00:50:10;;;;;;;9.40;8.63;;;20.00;99.90;;;;;;4993266;28;20422;-64
2021/07/11 00:52:38;;;;;;;9.00;8.50;;;20.00;99.90;;;;;;4993869;28;20415;-65
2021/07/11 00:55:05;;;;;;;8.90;8.30;;;20.00;99.90;;;;;;4993778;28;20415;-64
2021/07/11 00:57:30;;;;;;;9.30;8.70;;;20.00;99.90;;;;;;5008388;28;20549;-64
2021/07/11 00:59:56;;;;;;;9.27;8.60;;;20.00;99.90;;;;;;4993645;28;20561;-65
2021/07/11 01:02:40;;;;;;;8.87;8.20;;;20.00;99.90;;;;;;4992777;28;20183;-65
2021/07/11 01:05:09;;;;;;;8.70;8.20;;;20.00;99.90;;;;;;4973548;28;20172;-65
2021/07/11 01:07:46;;;;;;;9.33;8.63;;;20.00;99.90;;;;;;4974056;28;20416;-65
2021/07/11 01:10:30;;;;;;;8.67;8.13;;;20.00;99.90;;;;;;4973520;28;20400;-64
2021/07/11 01:12:56;;;;;;;9.40;8.70;;;20.00;99.90;;;;;;4974118;28;20768;-64
2021/07/11 01:15:26;;;;;;;10.07;9.27;;;20.00;99.90;;;;;;4956187;28;20408;-65
2021/07/11 01:17:56;;;;;;;9.13;8.50;;;20.00;99.90;;;;;;4974079;28;20834;-64
2021/07/11 01:20:56;;;;;;;9.70;8.90;;;20.00;99.90;;;;;;4972154;28;20463;-65
2021/07/11 01:23:36;;;;;;;10.20;9.50;;;20.00;99.90;;;;;;4976859;28;20415;-64
2021/07/11 01:26:05;;;;;;;9.07;8.37;;;20.00;99.90;;;;;;4993249;28;20430;-63
2021/07/11 01:28:30;;;;;;;9.50;8.80;;;20.00;99.90;;;;;;4993021;28;20431;-64
2021/07/11 01:30:57;;;;;;;10.13;9.43;;;20.00;99.90;;;;;;4993260;28;20407;-64
2021/07/11 01:33:25;;;;;;;10.30;9.50;;;20.00;99.90;;;;;;4992688;28;20171;-64
2021/07/11 01:35:51;;;;;;;11.00;9.90;;;20.00;99.90;;;;;;4993145;28;20457;-64
2021/07/11 01:38:18;;;;;;;10.10;9.40;;;19.90;99.90;;;;;;4992627;28;20403;-64
2021/07/11 01:40:44;;;;;;;11.73;10.63;;;19.90;99.90;;;;;;4993291;28;20180;-64
2021/07/11 01:43:11;;;;;;;11.57;10.77;;;19.90;99.90;;;;;;4992653;28;20804;-64
2021/07/11 01:45:38;;;;;;;11.50;10.50;;;19.90;99.90;;;;;;4993128;28;20410;-64
2021/07/11 01:48:05;;;;;;;12.23;11.03;;;19.90;99.90;;;;;;4993293;28;20414;-64
2021/07/11 01:50:31;;;;;;;12.30;11.20;;;19.80;99.90;;;;;;4992276;28;20438;-64
2021/07/11 01:52:57;;;;;;;13.57;12.37;;;19.80;99.90;;;;;;4993055;28;20395;-64
2021/07/11 01:55:25;;;;;;;12.83;11.73;;;19.70;99.90;;;;;;4992274;28;20632;-64
2021/07/11 01:57:51;;;;;;;12.27;11.27;;;19.60;99.90;;;;;;4993145;28;20462;-64
2021/07/11 02:00:18;;;;;;;13.63;12.33;;;19.60;99.90;;;;;;4992295;28;20481;-64
2021/07/11 02:02:46;;;;;;;13.80;12.63;;;19.60;99.90;;;;;;4992929;28;20465;-64
2021/07/11 02:05:12;;;;;;;12.30;11.10;;;19.60;99.90;;;;;;4992215;28;20423;-64
2021/07/11 02:07:38;;;;;;;12.87;11.77;;;19.60;99.90;;;;;;4993429;28;20407;-64
2021/07/11 02:10:07;;;;;;;13.73;12.50;;;19.60;99.90;;;;;;4996776;28;20493;-64
2021/07/11 02:12:34;;;;;;;12.57;11.47;;;19.50;99.90;;;;;;4996160;28;20175;-64
2021/07/11 02:15:05;;;;;;;11.77;10.60;;;19.60;99.90;;;;;;4996693;28;20403;-64
2021/07/11 02:17:31;;;;;;;10.73;9.83;;;19.50;99.90;;;;;;4996092;28;20391;-64
2021/07/11 02:20:00;;;;;;;11.07;10.07;;;19.50;99.90;;;;;;4996811;28;20816;-64
2021/07/11 02:22:27;;;;;;;11.00;10.20;;;19.50;99.90;;;;;;4995908;28;20887;-64
2021/07/11 02:24:53;;;;;;;9.73;8.93;;;19.50;99.90;;;;;;4996342;28;20430;-64
2021/07/11 02:27:19;;;;;;;11.00;10.10;;;19.50;99.90;;;;;;4995786;28;20423;-64
2021/07/11 02:29:47;;;;;;;9.90;9.10;;;19.50;99.90;;;;;;4996123;28;20755;-64
2021/07/11 02:32:17;;;;;;;8.83;8.23;;;19.50;99.90;;;;;;4995993;28;20801;-64
2021/07/11 02:34:44;;;;;;;9.90;9.10;;;19.50;99.90;;;;;;4996292;28;20911;-64
2021/07/11 02:37:13;;;;;;;11.00;10.07;;;19.50;99.90;;;;;;4996297;28;20442;-64
2021/07/11 02:39:43;;;;;;;11.20;10.23;;;19.40;99.90;;;;;;4996227;28;20505;-64
2021/07/11 02:42:12;;;;;;;10.07;9.17;;;19.40;99.90;;;;;;4996167;28;20425;-64
2021/07/11 02:44:38;;;;;;;10.40;9.60;;;19.40;99.90;;;;;;4996130;28;20953;-65
2021/07/11 02:47:07;;;;;;;10.23;9.40;;;19.40;99.90;;;;;;4996118;28;20411;-64
2021/07/11 02:49:33;;;;;;;10.87;9.97;;;19.40;99.90;;;;;;4995491;28;20418;-64
2021/07/11 02:52:01;;;;;;;10.90;10.10;;;19.40;99.90;;;;;;4996022;28;20406;-64
2021/07/11 02:54:34;;;;;;;10.27;9.37;;;19.40;99.90;;;;;;4995409;28;20430;-64
2021/07/11 02:57:02;;;;;;;10.70;9.70;;;19.40;99.90;;;;;;5007724;28;20462;-64
2021/07/11 02:59:29;;;;;;;10.97;10.00;;;19.40;99.90;;;;;;5014968;28;20461;-64
2021/07/11 03:02:00;;;;;;;11.97;10.63;;;19.40;99.90;;;;;;5015377;28;20398;-64
2021/07/11 03:04:29;;;;;;;11.47;10.53;;;19.40;99.90;;;;;;5014795;28;20389;-64
2021/07/11 03:06:55;;;;;;;11.60;10.60;;;19.40;99.90;;;;;;4997866;28;20417;-64
2021/07/11 03:09:20;;;;;;;11.60;10.60;;;19.40;99.90;;;;;;5014406;28;20418;-64
2021/07/11 03:11:47;;;;;;;12.33;11.30;;;19.40;99.90;;;;;;5015417;28;20547;-64
2021/07/11 03:14:14;;;;;;;11.57;10.57;;;19.40;99.90;;;;;;5007911;28;20179;-64
2021/07/11 03:16:46;;;;;;;12.60;11.50;;;19.40;99.90;;;;;;4995519;28;20879;-64
2021/07/11 03:19:12;;;;;;;12.30;10.67;;;19.40;99.90;;;;;;4995480;28;20439;-64
2021/07/11 03:21:38;;;;;;;13.63;11.83;;;19.40;99.90;;;;;;4995557;28;20422;-64
2021/07/11 03:24:05;;;;;;;12.50;11.20;;;19.40;99.90;;;;;;4995378;28;20506;-64
2021/07/11 03:26:34;;;;;;;13.30;12.03;;;19.40;99.90;;;;;;4994791;28;20457;-64
2021/07/11 03:29:04;;;;;;;13.73;12.43;;;19.40;99.90;;;;;;4978695;28;20423;-64
2021/07/11 03:31:31;;;;;;;14.17;12.60;;;19.40;99.90;;;;;;4994873;28;20387;-64
2021/07/11 03:33:58;;;;;;;12.90;11.70;;;19.40;99.90;;;;;;4995213;28;20434;-64
2021/07/11 03:36:24;;;;;;;13.20;11.90;;;19.40;99.90;;;;;;5014122;28;20403;-64
2021/07/11 03:38:56;;;;;;;13.60;12.30;;;19.40;99.90;;;;;;5014629;28;20453;-64
2021/07/11 03:41:27;;;;;;;13.50;12.20;;;19.40;99.90;;;;;;5013816;28;20421;-64
2021/07/11 03:43:56;;;;;;;16.17;12.87;;;19.50;99.90;;;;;;5014845;28;20766;-64
2021/07/11 03:46:26;;;;;;;15.67;13.17;;;19.50;99.90;;;;;;5013995;28;20483;-64
2021/07/11 03:48:58;;;;;;;13.23;11.83;;;19.50;99.90;;;;;;5014524;28;20402;-64
2021/07/11 03:51:29;;;;;;;14.87;13.33;;;19.40;99.90;;;;;;5014033;28;20399;-64
2021/07/11 03:53:58;;;;;;;14.07;12.67;;;19.50;99.90;;;;;;5014520;28;20465;-64
2021/07/11 03:56:28;;;;;;;14.00;12.50;;;19.50;99.90;;;;;;4996483;28;20459;-64
2021/07/11 03:58:56;;;;;;;14.97;13.47;;;19.50;99.90;;;;;;4995061;28;20476;-65
2021/07/11 04:01:24;;;;;;;16.90;14.37;;;19.50;99.90;;;;;;4993876;28;20434;-64
2021/07/11 04:03:51;;;;;;;15.17;13.57;;;19.50;99.90;;;;;;4994715;28;20407;-64
2021/07/11 04:06:18;;;;;;;17.57;14.53;;;19.40;99.90;;;;;;4994164;28;20446;-64
2021/07/11 04:08:45;;;;;;;16.67;13.87;;;19.40;99.90;;;;;;4994602;28;20411;-64
2021/07/11 04:11:12;;;;;;;15.53;13.90;;;19.40;99.90;;;;;;4994564;28;20403;-64
2021/07/11 04:13:38;;;;;;;16.57;14.83;;;19.40;99.90;;;;;;4993875;28;20402;-64
2021/07/11 04:16:07;;;;;;;15.13;13.50;;;19.40;99.90;;;;;;4994228;28;20419;-64
2021/07/11 04:18:43;;;;;;;14.13;12.67;;;19.40;99.90;;;;;;4994039;28;20183;-64
2021/07/11 04:21:10;;;;;;;17.73;13.73;;;19.40;99.90;;;;;;4994286;28;20403;-67
2021/07/11 04:23:36;;;;;;;15.67;14.03;;;19.40;99.90;;;;;;4993701;28;20415;-66
2021/07/11 04:26:04;;;;;;;14.33;12.93;;;19.50;99.90;;;;;;4994453;28;20414;-66
2021/07/11 04:28:38;;;;;;;16.77;13.97;;;19.50;99.90;;;;;;4993600;28;20422;-66
2021/07/11 04:31:05;;;;;;;15.00;13.00;;;19.50;99.90;;;;;;4993390;28;20966;-66
2021/07/11 04:33:32;;;;;;;15.63;14.03;;;19.50;99.90;;;;;;4993221;28;20411;-66
2021/07/11 04:35:58;;;;;;;15.53;13.57;;;19.60;99.90;;;;;;4994108;28;20414;-66
2021/07/11 04:38:24;;;;;;;15.43;13.93;;;19.60;99.90;;;;;;4993218;28;20415;-66
2021/07/11 04:40:51;;;;;;;17.53;14.43;;;19.60;99.90;;;;;;4993990;28;20430;-66
2021/07/11 04:43:17;;;;;;;14.73;13.20;;;19.60;99.90;;;;;;4994020;28;20654;-66
2021/07/11 04:45:47;;;;;;;15.80;14.20;;;19.60;99.90;;;;;;4993751;28;20431;-66
2021/07/11 04:48:13;;;;;;;15.27;13.30;;;19.60;99.90;;;;;;4993916;28;20422;-66
2021/07/11 04:50:42;;;;;;;15.30;13.67;;;19.60;99.90;;;;;;4993042;28;20586;-66
2021/07/11 04:53:08;;;;;;;15.93;14.10;;;19.60;99.90;;;;;;4993850;28;20466;-66
2021/07/11 04:55:34;;;;;;;15.33;13.60;;;19.70;99.90;;;;;;4992883;28;20410;-66
2021/07/11 04:58:00;;;;;;;15.23;13.70;;;19.60;99.90;;;;;;5013283;28;20179;-66
2021/07/11 05:00:26;;;;;;;16.20;14.67;;;19.70;99.90;;;;;;5012724;28;20467;-66
2021/07/11 05:02:51;;;;;;;16.07;14.37;;;19.70;99.90;;;;;;5013229;28;20638;-66
2021/07/11 05:05:17;;;;;;;17.50;15.70;;;19.70;99.90;;;;;;5013225;28;20622;-66
2021/07/11 05:07:43;;;;;;;17.13;15.43;;;19.60;99.90;;;;;;5012591;28;20179;-66
2021/07/11 05:10:10;;;;;;;16.40;14.70;;;19.70;99.90;;;;;;5011430;28;20254;-66
2021/07/11 05:12:36;;;;;;;17.80;15.07;;;19.60;99.90;;;;;;5012448;28;20202;-66
2021/07/11 05:15:04;;;;;;;16.57;14.77;;;19.70;99.90;;;;;;5013118;28;20410;-66
2021/07/11 05:17:30;;;;;;;16.10;14.50;;;19.60;99.90;;;;;;5012387;28;20402;-66
2021/07/11 05:19:55;;;;;;;17.33;14.30;;;19.60;99.90;;;;;;5012929;28;20450;-66
2021/07/11 05:22:21;;;;;;;16.10;13.90;;;19.60;99.90;;;;;;5012500;28;20172;-66
2021/07/11 05:24:47;;;;;;;16.30;14.63;;;19.60;99.90;;;;;;5013094;28;20183;-66
2021/07/11 05:27:13;;;;;;;16.90;15.20;;;19.60;99.90;;;;;;5013058;28;20194;-66
2021/07/11 05:29:38;;;;;;;17.87;15.13;;;19.70;99.90;;;;;;5012131;28;20241;-66
2021/07/11 05:32:04;;;;;;;19.10;17.20;;;19.60;99.90;;;;;;5004841;28;20187;-66
2021/07/11 05:34:30;;;;;;;17.20;15.10;;;19.50;99.90;;;;;;4992341;28;20172;-66
2021/07/11 05:36:56;;;;;;;16.50;14.90;;;19.50;99.90;;;;;;4975876;28;20755;-66
2021/07/11 05:39:21;;;;;;;15.77;14.10;;;19.50;99.90;;;;;;4992491;28;20211;-66
2021/07/11 05:41:47;;;;;;;15.60;14.00;;;19.50;99.90;;;;;;4993155;28;20186;-66
2021/07/11 05:44:13;;;;;;;16.47;14.87;;;19.60;99.90;;;;;;4979012;28;20237;-66
2021/07/11 05:46:39;;;;;;;15.60;14.07;;;19.60;99.90;;;;;;4996861;28;20171;-66
2021/07/11 05:49:04;;;;;;;17.90;16.10;;;19.60;99.90;;;;;;4997226;28;20628;-66
2021/07/11 05:51:30;;;;;;;16.40;14.70;;;19.70;99.90;;;;;;5008188;28;20174;-66
2021/07/11 05:53:57;;;;;;;17.13;15.43;;;19.70;99.90;;;;;;5016669;28;20488;-66
2021/07/11 05:56:23;;;;;;;17.27;15.60;;;19.70;99.90;;;;;;5016262;28;20226;-66
2021/07/11 05:58:48;;;;;;;16.50;14.80;;;19.70;99.90;;;;;;5016551;28;20472;-67
2021/07/11 06:01:14;;;;;;;17.00;15.30;;;19.70;99.90;;;;;;5016825;28;20434;-66
2021/07/11 06:03:40;;;;;;;16.33;14.70;;;19.70;99.90;;;;;;5015957;28;20236;-67
2021/07/11 06:06:06;;;;;;;17.20;15.50;;;19.80;99.90;;;;;;5016550;28;20175;-66
2021/07/11 06:08:32;;;;;;;16.90;14.10;;;19.80;99.90;;;;;;5015883;28;20175;-66
2021/07/11 06:10:58;;;;;;;17.20;15.50;;;19.80;99.90;;;;;;5010390;28;20422;-66
2021/07/11 06:13:23;;;;;;;16.40;14.70;;;19.80;99.90;;;;;;4996417;28;20413;-66
2021/07/11 06:15:50;;;;;;;16.30;14.70;;;19.90;99.90;;;;;;5006359;28;20186;-66
2021/07/11 06:18:16;;;;;;;14.60;13.20;;;19.90;99.90;;;;;;5016335;28;20549;-66
2021/07/11 06:20:42;;;;;;;17.50;14.40;;;20.00;99.90;;;;;;5015295;28;20511;-66
2021/07/11 06:23:09;;;;;;;14.77;13.37;;;20.00;99.90;;;;;;5016686;28;20869;-66
2021/07/11 06:25:36;;;;;;;16.00;14.60;;;20.10;99.90;;;;;;5013767;28;20199;-66
2021/07/11 06:28:02;;;;;;;16.90;15.30;;;20.10;99.90;;;;;;4996427;28;20435;-66
2021/07/11 06:30:28;;;;;;;16.50;14.90;;;20.20;99.90;;;;;;4995822;28;20530;-66
2021/07/11 06:32:53;;;;;;;16.57;15.03;;;20.30;99.90;;;;;;4996318;28;20442;-65
2021/07/11 06:35:22;;;;;;;17.27;15.60;;;20.30;99.90;;;;;;4996263;28;20540;-65
2021/07/11 06:37:48;;;;;;;16.77;15.20;;;20.40;99.90;;;;;;4995673;28;20178;-65
2021/07/11 06:40:16;;;;;;;16.30;14.70;;;20.40;99.90;;;;;;4995826;28;20464;-65
2021/07/11 06:42:42;;;;;;;16.57;14.97;;;20.50;99.90;;;;;;5005080;28;20749;-65
2021/07/11 06:45:10;;;;;;;17.43;15.83;;;20.60;99.90;;;;;;5006789;28;20429;-65
2021/07/11 06:47:36;;;;;;;14.90;13.37;;;20.60;99.90;;;;;;5002032;28;20925;-67
2021/07/11 06:50:03;;;;;;;17.60;15.90;;;20.70;99.90;;;;;;5006006;28;20439;-63
2021/07/11 06:52:29;;;;;;;17.60;15.80;;;20.70;99.90;;;;;;5014996;28;20418;-64
2021/07/11 06:54:55;;;;;;;17.27;15.70;;;20.90;99.90;;;;;;5014752;28;20426;-68
2021/07/11 06:57:21;;;;;;;18.60;16.87;;;21.10;99.90;;;;;;5000721;28;20222;-64
2021/07/11 06:59:47;;;;;;;16.80;15.27;;;21.20;99.90;;;;;;4993894;28;20974;-63
2021/07/11 07:02:13;;;;;;;17.10;15.30;;;21.30;99.90;;;;;;4994135;28;20406;-64
2021/07/11 07:04:39;;;;;;;16.87;15.27;;;21.40;99.90;;;;;;4994998;28;20207;-64
2021/07/11 07:07:04;;;;;;;18.10;16.40;;;21.40;99.90;;;;;;4994070;28;20573;-64
2021/07/11 07:09:30;;;;;;;17.37;15.67;;;21.30;99.90;;;;;;4993015;28;20234;-64
2021/07/11 07:11:56;;;;;;;18.20;16.40;;;21.30;99.90;;;;;;4998085;28;20427;-64
2021/07/11 07:14:22;;;;;;;17.47;15.67;;;21.30;99.90;;;;;;4999365;28;20234;-64
2021/07/11 07:16:47;;;;;;;17.63;15.93;;;21.30;99.90;;;;;;5000135;28;20263;-64
2021/07/11 07:19:13;;;;;;;18.07;16.37;;;21.30;99.90;;;;;;4998870;28;20203;-64
2021/07/11 07:21:39;;;;;;;20.30;16.90;;;21.30;99.90;;;;;;4993461;28;20203;-63
2021/07/11 07:24:05;;;;;;;17.63;16.03;;;21.40;99.90;;;;;;5006273;28;20186;-63
2021/07/11 07:26:30;;;;;;;17.83;16.17;;;21.40;99.90;;;;;;4994498;28;20168;-64
2021/07/11 07:28:56;;;;;;;17.73;16.20;;;21.40;99.90;;;;;;5008722;28;20586;-63
2021/07/11 07:31:22;;;;;;;17.47;15.87;;;21.50;99.90;;;;;;4998049;28;20214;-64
2021/07/11 07:33:48;;;;;;;16.53;15.10;;;21.60;99.90;;;;;;4994593;28;20231;-63
2021/07/11 07:36:13;;;;;;;18.87;17.10;;;21.60;99.90;;;;;;4995345;28;20204;-63
2021/07/11 07:38:39;;;;;;;17.90;16.30;;;21.60;99.90;;;;;;4995483;28;20180;-64
2021/07/11 07:41:05;;;;;;;15.97;14.47;;;21.70;99.90;;;;;;4996172;28;20184;-63
2021/07/11 07:43:30;;;;;;;17.17;15.57;;;21.80;99.90;;;;;;4994630;28;20176;-64
2021/07/11 07:45:57;;;;;;;17.33;15.73;;;21.80;99.90;;;;;;4994750;28;20666;-64
2021/07/11 07:48:22;;;;;;;17.27;15.67;;;21.80;99.90;;;;;;4995046;28;20172;-63
2021/07/11 07:50:48;;;;;;;19.77;16.30;;;21.80;99.90;;;;;;4994423;28;20418;-63
2021/07/11 07:53:14;;;;;;;19.40;17.40;;;21.90;99.90;;;;;;4994921;28;20183;-63
2021/07/11 07:55:39;;;;;;;165.03;134.37;;;21.90;99.90;;;;;;4993769;28;20179;-63
2021/07/11 07:58:05;;;;;;;78.50;69.87;;;22.00;99.90;;;;;;4994913;28;20250;-63
2021/07/11 08:00:31;;;;;;;19.60;17.80;;;22.00;99.90;;;;;;4994020;28;20211;-64
2021/07/11 08:02:59;;;;;;;17.30;15.77;;;22.10;99.90;;;;;;4994730;28;20175;-63
2021/07/11 08:05:26;;;;;;;17.10;15.60;;;22.10;99.90;;;;;;4993852;28;20466;-63
2021/07/11 08:07:52;;;;;;;17.20;15.60;;;22.10;99.90;;;;;;4993700;28;20427;-63
2021/07/11 08:10:18;;;;;;;16.87;15.30;;;22.10;99.90;;;;;;4993884;28;20555;-62
2021/07/11 08:12:45;;;;;;;17.03;15.43;;;22.10;99.90;;;;;;4994036;28;20463;-62
2021/07/11 08:15:16;;;;;;;16.47;14.90;;;22.10;99.90;;;;;;4994291;28;20238;-62
2021/07/11 08:17:46;;;;;;;15.20;13.90;;;22.10;99.90;;;;;;4993380;28;20419;-61
2021/07/11 08:20:13;;;;;;;14.50;13.30;;;22.20;99.90;;;;;;4994155;28;20497;-60
2021/07/11 08:22:39;;;;;;;57.73;51.53;;;22.10;99.90;;;;;;4993655;28;20407;-61
2021/07/11 08:25:09;;;;;;;26.20;23.67;;;22.10;99.90;;;;;;4993657;28;20848;-60
2021/07/11 08:27:36;;;;;;;18.43;16.73;;;22.10;99.90;;;;;;4992734;28;20183;-61
2021/07/11 08:30:05;;;;;;;15.03;13.60;;;22.10;99.90;;;;;;4994202;28;20415;-61
2021/07/11 08:32:30;;;;;;;15.37;14.03;;;22.20;99.90;;;;;;4993531;28;20419;-62
2021/07/11 08:34:56;;;;;;;16.20;14.80;;;22.20;99.90;;;;;;4993944;28;20419;-61
2021/07/11 08:37:22;;;;;;;17.53;15.80;;;22.30;99.90;;;;;;4993153;28;20187;-61
2021/07/11 08:39:48;;;;;;;16.37;14.87;;;22.30;99.90;;;;;;4993020;28;20459;-61
2021/07/11 08:42:14;;;;;;;15.90;14.50;;;22.30;99.90;;;;;;4993990;28;20175;-60
2021/07/11 08:44:39;;;;;;;17.30;15.70;;;22.30;99.90;;;;;;4993300;28;20510;-61
2021/07/11 08:47:05;;;;;;;16.60;15.00;;;22.40;99.90;;;;;;4993695;28;20643;-61
2021/07/11 08:49:31;;;;;;;16.27;14.60;;;22.40;99.90;;;;;;4993703;28;20175;-62
2021/07/11 08:51:59;;;;;;;15.77;14.47;;;22.60;99.90;;;;;;4993655;28;20171;-61
2021/07/11 08:54:26;;;;;;;17.40;15.70;;;22.60;99.90;;;;;;4993624;28;20411;-61
2021/07/11 08:57:00;;;;;;;17.30;15.70;;;22.60;99.90;;;;;;4993100;28;20848;-61
2021/07/11 08:59:27;;;;;;;16.53;14.83;;;22.60;99.90;;;;;;4993639;28;20870;-61
2021/07/11 09:01:54;;;;;;;19.57;16.00;;;22.70;99.90;;;;;;4993054;28;20423;-61
2021/07/11 09:04:20;;;;;;;17.07;15.50;;;22.60;99.90;;;;;;4993596;28;20413;-65
2021/07/11 09:06:49;;;;;;;16.00;14.60;;;22.60;99.90;;;;;;4992955;28;20407;-61
2021/07/11 09:09:44;;;;;;;17.80;14.87;;;22.50;99.90;;;;;;4993538;28;20203;-60
2021/07/11 09:12:12;;;;;;;17.73;16.13;;;22.40;99.90;;;;;;4970713;28;20427;-60
2021/07/11 09:14:40;;;;;;;16.00;14.63;;;22.40;99.90;;;;;;4991096;28;20905;-61
2021/07/11 09:17:08;;;;;;;16.67;15.17;;;22.40;99.90;;;;;;4993390;28;20423;-61
2021/07/11 09:19:38;;;;;;;16.73;15.23;;;22.50;99.90;;;;;;4992695;28;20455;-62
2021/07/11 09:22:18;;;;;;;16.53;14.90;;;22.60;99.90;;;;;;4991490;28;20765;-61
2021/07/11 09:24:56;;;;;;;18.17;16.47;;;22.60;99.90;;;;;;4955923;28;20919;-61
2021/07/11 09:27:25;;;;;;;18.73;16.83;;;22.60;99.90;;;;;;4983541;28;20797;-61
2021/07/11 09:29:54;;;;;;;20.20;18.30;;;22.60;99.90;;;;;;4992197;28;20453;-61
2021/07/11 09:32:28;;;;;;;17.73;16.13;;;22.60;99.90;;;;;;4993350;28;20497;-61
2021/07/11 09:34:55;;;;;;;15.77;14.30;;;22.60;99.90;;;;;;4992691;28;20518;-61
2021/07/11 09:37:22;;;;;;;18.03;16.53;;;22.60;99.90;;;;;;4975304;28;20498;-61
2021/07/11 09:39:54;;;;;;;17.03;15.50;;;22.60;99.90;;;;;;4991011;28;20458;-61
2021/07/11 09:42:37;;;;;;;19.60;17.70;;;22.70;99.90;;;;;;4993345;28;20399;-61
2021/07/11 09:45:13;;;;;;;18.23;16.57;;;22.80;99.90;;;;;;4993163;28;20883;-61
2021/07/11 09:47:39;;;;;;;135.87;122.23;;;22.80;99.80;;;;;;4992533;28;20395;-61
2021/07/11 09:50:12;;;;;;;120.07;98.13;;;22.60;99.90;;;;;;4993325;28;20522;-61
2021/07/11 09:52:45;;;;;;;22.50;20.20;;;22.60;99.70;;;;;;4992637;28;20167;-62
2021/07/11 09:55:20;;;;;;;19.07;17.37;;;22.60;99.90;;;;;;4992217;28;20426;-61
2021/07/11 09:57:50;;;;;;;18.53;16.93;;;22.50;99.90;;;;;;4991915;28;20494;-62
2021/07/11 10:00:23;;;;;;;20.50;18.33;;;22.50;99.90;;;;;;4993096;28;20462;-61
2021/07/11 10:03:01;;;;;;;23.40;20.90;;;22.50;99.90;;;;;;4992218;28;20427;-61
2021/07/11 10:05:28;;;;;;;23.80;21.47;;;22.40;99.90;;;;;;4993030;28;20395;-61
2021/07/11 10:07:54;;;;;;;25.03;20.80;;;22.30;99.90;;;;;;4992397;28;20434;-61
2021/07/11 10:10:23;;;;;;;22.40;20.20;;;22.20;99.90;;;;;;4992419;28;20458;-61
2021/07/11 10:12:49;;;;;;;22.00;19.93;;;22.20;99.90;;;;;;4992054;28;20419;-61
2021/07/11 10:15:21;;;;;;;21.33;19.33;;;22.20;99.90;;;;;;4992821;28;20505;-61
2021/07/11 10:17:54;;;;;;;23.23;20.63;;;22.10;99.90;;;;;;4972873;28;20412;-61
2021/07/11 10:20:22;;;;;;;23.57;21.27;;;22.20;99.90;;;;;;4986410;28;20880;-62
2021/07/11 10:22:50;;;;;;;23.03;20.77;;;22.10;99.90;;;;;;4992141;28;20814;-62
2021/07/11 10:25:22;;;;;;;24.00;21.43;;;22.10;99.90;;;;;;4991068;28;20770;-62
2021/07/11 10:27:49;;;;;;;23.57;20.97;;;22.10;99.90;;;;;;4990294;28;20423;-61
2021/07/11 10:30:16;;;;;;;23.97;21.43;;;22.20;99.90;;;;;;4995278;28;20438;-65
2021/07/11 10:32:42;;;;;;;63.57;48.80;;;22.20;99.90;;;;;;4995560;28;20771;-61
2021/07/11 10:35:11;;;;;;;118.57;105.23;;;22.30;99.90;;;;;;4994571;28;20438;-61
2021/07/11 10:37:45;;;;;;;27.03;24.20;;;22.50;99.90;;;;;;4993774;28;20522;-60
2021/07/11 10:40:15;;;;;;;23.13;20.63;;;22.60;99.90;;;;;;4994495;28;20462;-61
2021/07/11 10:42:40;;;;;;;21.47;19.43;;;22.80;99.90;;;;;;4994381;28;20415;-61
2021/07/11 10:45:17;;;;;;;22.00;19.80;;;23.00;99.90;;;;;;4994100;28;20422;-61
2021/07/11 10:47:44;;;;;;;21.83;19.73;;;23.30;99.90;;;;;;4995268;28;20583;-61
2021/07/11 10:50:28;;;;;;;22.57;20.37;;;23.60;99.90;;;;;;4995577;28;20422;-62
2021/07/11 10:52:56;;;;;;;22.20;20.20;;;23.90;99.40;;;;;;4995269;28;20458;-61
2021/07/11 10:55:23;;;;;;;22.37;20.27;;;24.20;98.70;;;;;;4995644;28;20913;-61
2021/07/11 10:57:49;;;;;;;21.67;19.57;;;24.30;97.40;;;;;;5013461;28;20864;-61
2021/07/11 11:00:19;;;;;;;20.87;18.87;;;24.50;97.80;;;;;;5013718;28;20461;-61
2021/07/11 11:02:47;;;;;;;24.57;22.07;;;24.60;97.20;;;;;;4994937;28;20773;-61
2021/07/11 11:05:16;;;;;;;22.60;20.30;;;24.70;96.80;;;;;;4993311;28;20419;-61
2021/07/11 11:07:56;;;;;;;22.00;19.87;;;24.90;97.20;;;;;;4993352;28;20445;-62
2021/07/11 11:10:34;;;;;;;21.60;19.70;;;25.00;96.90;;;;;;4994884;28;20427;-60
2021/07/11 11:13:20;;;;;;;73.90;57.90;;;25.20;96.20;;;;;;5003065;28;20423;-61
2021/07/11 11:15:54;;;;;;;68.23;61.17;;;25.30;95.30;;;;;;4991571;28;20430;-62
2021/07/11 11:18:20;;;;;;;23.90;21.50;;;25.40;95.20;;;;;;4994737;28;20429;-61
2021/07/11 11:21:05;;;;;;;23.93;21.73;;;25.40;95.60;;;;;;4994850;28;20463;-61
2021/07/11 11:23:35;;;;;;;23.53;21.33;;;25.40;95.60;;;;;;5002725;28;20167;-61
2021/07/11 11:26:02;;;;;;;21.20;19.30;;;25.40;96.10;;;;;;5014792;28;20910;-61
2021/07/11 11:28:39;;;;;;;20.87;18.73;;;25.40;95.60;;;;;;4996784;28;20427;-61
2021/07/11 11:31:14;;;;;;;20.07;18.07;;;25.40;95.70;;;;;;4995138;28;20430;-61
2021/07/11 11:33:55;;;;;;;21.70;19.60;;;25.40;95.30;;;;;;5001600;28;20425;-61
2021/07/11 11:36:30;;;;;;;20.87;18.70;;;25.40;95.40;;;;;;5001062;28;20430;-62
2021/07/11 11:38:58;;;;;;;19.17;17.27;;;25.50;94.40;;;;;;4975081;28;20784;-62
2021/07/11 11:41:24;;;;;;;20.43;18.20;;;25.60;93.90;;;;;;4981673;28;20427;-63
2021/07/11 11:43:51;;;;;;;20.50;18.60;;;25.70;93.90;;;;;;4995960;28;20427;-61
2021/07/11 11:46:45;;;;;;;21.47;19.27;;;25.80;94.00;;;;;;4994979;28;20518;-62
2021/07/11 11:49:13;;;;;;;19.47;17.50;;;25.80;94.00;;;;;;4992424;28;20431;-61
2021/07/11 11:51:53;;;;;;;21.03;18.80;;;25.90;93.70;;;;;;4994695;28;20430;-61
2021/07/11 11:54:24;;;;;;;19.60;17.57;;;25.90;93.90;;;;;;4994952;28;20446;-61
2021/07/11 11:56:50;;;;;;;22.00;19.93;;;25.90;93.60;;;;;;4994170;28;20458;-61
2021/07/11 11:59:16;;;;;;;21.07;19.10;;;25.80;93.20;;;;;;4994493;28;20455;-61
2021/07/11 12:01:42;;;;;;;19.00;17.30;;;25.60;94.00;;;;;;4994533;28;20266;-62
2021/07/11 12:04:16;;;;;;;19.13;17.33;;;25.50;94.00;;;;;;4994342;28;20183;-63
2021/07/11 12:06:52;;;;;;;19.47;17.53;;;25.30;93.90;;;;;;4993446;28;20179;-62
2021/07/11 12:09:22;;;;;;;18.23;16.67;;;25.30;93.90;;;;;;4994239;28;20437;-62
2021/07/11 12:12:04;;;;;;;20.87;18.87;;;25.20;94.00;;;;;;4993603;28;20407;-62
2021/07/11 12:14:31;;;;;;;18.93;17.10;;;25.10;94.20;;;;;;4994566;28;20404;-62
2021/07/11 12:17:03;;;;;;;22.53;19.47;;;25.10;94.10;;;;;;4993936;28;20893;-57
2021/07/11 12:19:29;;;;;;;35.30;25.30;;;25.00;95.10;;;;;;4994422;28;20989;-59
2021/07/11 12:21:56;;;;;;;56.37;48.17;;;24.80;94.60;;;;;;4993734;28;20415;-59
2021/07/11 12:24:24;;;;;;;43.00;36.60;;;24.80;95.90;;;;;;4994587;28;20429;-59
2021/07/11 12:26:56;;;;;;;26.13;23.30;;;24.90;96.50;;;;;;4993860;28;20433;-60
2021/07/11 12:29:30;;;;;;;24.43;21.93;;;24.90;96.20;;;;;;4994326;28;20400;-59
2021/07/11 12:32:05;;;;;;;17.93;16.23;;;24.90;95.80;;;;;;4993629;28;20800;-60
2021/07/11 12:34:32;;;;;;;20.70;18.77;;;24.90;95.00;;;;;;4994241;28;20777;-59
2021/07/11 12:37:05;;;;;;;22.93;20.60;;;24.90;95.00;;;;;;4993568;28;20498;-59